Tigerlily Ofcornwall — MMYY4 — position and weather

sailwx.info

Track history (hours):
 
Tides and Currents Weather Stations Pressure Air Temp Water Temp Dewpoint Dewpoint Depression Visibility Wind Speed Wind Dir Waves Ship Positions

Tigerlily Ofcornwall

Last reported at 2018-Jun-18 07:29 UTC. Time now 2018-Jun-20 23:07 UTC.
Position N 39°34' E 002°39'.

Type: Sailing vessel. MMSI: 25489000.

Date/timePositionNaut miles runAvg speedWind from/ knotsBaromVisibWave heightAir tempDewpointWater temp
2018-Jun-18 07:29N 39°34' E 002°39'0 0.0
2018-Jun-18 06:59N 39°34' E 002°39'0 0.0
2018-Jun-18 06:29N 39°34' E 002°39'0 0.0
2018-Jun-18 05:59N 39°34' E 002°39'0 0.0
2018-Jun-18 05:29N 39°34' E 002°39'0 0.0
2018-Jun-18 04:59N 39°34' E 002°39'0 0.0
2018-Jun-18 04:29N 39°34' E 002°39'0 0.0
2018-Jun-18 03:59N 39°34' E 002°39'0 0.0
2018-Jun-18 03:29N 39°34' E 002°39'0 0.0
2018-Jun-18 02:56N 39°34' E 002°39'0 0.0
2018-Jun-18 02:29N 39°34' E 002°39'0 0.0
2018-Jun-18 01:59N 39°34' E 002°39'0 0.0
2018-Jun-18 01:29N 39°34' E 002°39'0 0.0
2018-Jun-18 00:59N 39°34' E 002°39'0 0.0
2018-Jun-18 00:29N 39°34' E 002°39'0 0.0
2018-Jun-17 23:59N 39°34' E 002°39'0 0.0
2018-Jun-17 23:29N 39°34' E 002°39'0 0.0
2018-Jun-17 22:59N 39°34' E 002°39'0 0.0
2018-Jun-17 22:29N 39°34' E 002°39'0 0.0
2018-Jun-17 21:59N 39°34' E 002°39'0 0.0
2018-Jun-17 21:29N 39°34' E 002°39'0 0.0
2018-Jun-17 20:59N 39°34' E 002°39'0 0.0
2018-Jun-17 20:29N 39°34' E 002°39'0 0.0
2018-Jun-17 19:59N 39°34' E 002°39'0 0.0
2018-Jun-17 19:29N 39°34' E 002°39'0 0.0
2018-Jun-17 18:59N 39°34' E 002°39'0 0.0
2018-Jun-17 18:29N 39°34' E 002°39'0 0.0
2018-Jun-17 17:59N 39°34' E 002°39'0 0.0
2018-Jun-17 17:29N 39°34' E 002°39'0 0.0
2018-Jun-17 16:56N 39°34' E 002°39'0 0.0
2018-Jun-17 16:29N 39°34' E 002°39'0 0.0
2018-Jun-17 16:00N 39°34' E 002°39'3 5.7
2018-Jun-17 15:30N 39°31' E 002°37'3 7.1
2018-Jun-17 15:00N 39°29' E 002°34'4 8.1
2018-Jun-17 14:30N 39°26' E 002°30'65 2.2
2018-Jun-16 08:49N 38°45' E 001°26'0 0.0
2018-Jun-16 08:25N 38°45' E 001°26'1 0.1
2018-Jun-16 01:04N 38°46' E 001°26'0 0.0
2018-Jun-16 00:58N 38°46' E 001°26'0 0.0
2018-Jun-15 18:16N 38°46' E 001°26'0 0.0
2018-Jun-15 17:46N 38°46' E 001°26'0 0.0
2018-Jun-15 17:28N 38°46' E 001°26'146 5.2
2018-Jun-14 13:38N 41°08' E 002°07'3 7.9
2018-Jun-14 13:19N 41°10' E 002°08'2 7.9
2018-Jun-14 13:00N 41°13' E 002°09'4 8.1
2018-Jun-14 12:30N 41°17' E 002°10'  
2018-Jun-11 13:37N 41°21' E 002°11'1 6.1
2018-Jun-11 13:28N 41°20' E 002°11'  
2018-Jun-08 07:55N 41°22' E 002°11'2 4.6
2018-Jun-08 07:31N 41°20' E 002°12'  
Track history (hours):
 
Tides and Currents Weather Stations Pressure Air Temp Water Temp Dewpoint Dewpoint Depression Visibility Wind Speed Wind Dir Waves Ship Positions

Tigerlily Ofcornwall

Last reported at 2018-Jun-18 07:29 UTC. Time now 2018-Jun-20 23:07 UTC.
Position N 39°34' E 002°39'.

Type: Sailing vessel. MMSI: 25489000.

Date/timePositionNaut miles runAvg speedWind from/ knotsBaromVisibWave heightAir tempDewpointWater temp
2018-Jun-18 07:29N 39°34' E 002°39'0 0.0
2018-Jun-18 06:59N 39°34' E 002°39'0 0.0
2018-Jun-18 06:29N 39°34' E 002°39'0 0.0
2018-Jun-18 05:59N 39°34' E 002°39'0 0.0
2018-Jun-18 05:29N 39°34' E 002°39'0 0.0
2018-Jun-18 04:59N 39°34' E 002°39'0 0.0
2018-Jun-18 04:29N 39°34' E 002°39'0 0.0
2018-Jun-18 03:59N 39°34' E 002°39'0 0.0
2018-Jun-18 03:29N 39°34' E 002°39'0 0.0
2018-Jun-18 02:56N 39°34' E 002°39'0 0.0
2018-Jun-18 02:29N 39°34' E 002°39'0 0.0
2018-Jun-18 01:59N 39°34' E 002°39'0 0.0
2018-Jun-18 01:29N 39°34' E 002°39'0 0.0
2018-Jun-18 00:59N 39°34' E 002°39'0 0.0
2018-Jun-18 00:29N 39°34' E 002°39'0 0.0
2018-Jun-17 23:59N 39°34' E 002°39'0 0.0
2018-Jun-17 23:29N 39°34' E 002°39'0 0.0
2018-Jun-17 22:59N 39°34' E 002°39'0 0.0
2018-Jun-17 22:29N 39°34' E 002°39'0 0.0
2018-Jun-17 21:59N 39°34' E 002°39'0 0.0
2018-Jun-17 21:29N 39°34' E 002°39'0 0.0
2018-Jun-17 20:59N 39°34' E 002°39'0 0.0
2018-Jun-17 20:29N 39°34' E 002°39'0 0.0
2018-Jun-17 19:59N 39°34' E 002°39'0 0.0
2018-Jun-17 19:29N 39°34' E 002°39'0 0.0
2018-Jun-17 18:59N 39°34' E 002°39'0 0.0
2018-Jun-17 18:29N 39°34' E 002°39'0 0.0
2018-Jun-17 17:59N 39°34' E 002°39'0 0.0
2018-Jun-17 17:29N 39°34' E 002°39'0 0.0
2018-Jun-17 16:56N 39°34' E 002°39'0 0.0
2018-Jun-17 16:29N 39°34' E 002°39'0 0.0
2018-Jun-17 16:00N 39°34' E 002°39'3 5.7
2018-Jun-17 15:30N 39°31' E 002°37'3 7.1
2018-Jun-17 15:00N 39°29' E 002°34'4 8.1
2018-Jun-17 14:30N 39°26' E 002°30'65 2.2
2018-Jun-16 08:49N 38°45' E 001°26'0 0.0
2018-Jun-16 08:25N 38°45' E 001°26'1 0.1
2018-Jun-16 01:04N 38°46' E 001°26'0 0.0
2018-Jun-16 00:58N 38°46' E 001°26'0 0.0
2018-Jun-15 18:16N 38°46' E 001°26'0 0.0
2018-Jun-15 17:46N 38°46' E 001°26'0 0.0
2018-Jun-15 17:28N 38°46' E 001°26'146 5.2
2018-Jun-14 13:38N 41°08' E 002°07'3 7.9
2018-Jun-14 13:19N 41°10' E 002°08'2 7.9
2018-Jun-14 13:00N 41°13' E 002°09'4 8.1
2018-Jun-14 12:30N 41°17' E 002°10'  
2018-Jun-11 13:37N 41°21' E 002°11'1 6.1
2018-Jun-11 13:28N 41°20' E 002°11'  
2018-Jun-08 07:55N 41°22' E 002°11'2 4.6
2018-Jun-08 07:31N 41°20' E 002°12'  

Dump ship's entire track history